createdAt,value
2018-12-16T00:00:52.076Z,1.70
2018-12-16T00:03:21.117Z,2.40
2018-12-16T00:05:50.378Z,2.50
2018-12-16T00:08:19.635Z,2.20
2018-12-16T00:10:48.871Z,2.00
2018-12-16T00:13:18.012Z,2.00
2018-12-16T00:15:47.147Z,2.50
2018-12-16T00:18:16.216Z,2.30
2018-12-16T00:20:45.336Z,2.20
2018-12-16T00:23:14.387Z,2.60
2018-12-16T00:25:43.628Z,2.30
2018-12-16T00:28:12.886Z,2.50
2018-12-16T00:30:42.024Z,2.40
2018-12-16T00:33:11.235Z,2.30
2018-12-16T00:35:40.438Z,2.70
2018-12-16T00:38:09.480Z,1.70
2018-12-16T00:40:38.564Z,2.30
2018-12-16T00:43:07.604Z,2.60
2018-12-16T00:45:36.872Z,3.00
2018-12-16T00:48:05.996Z,2.30
2018-12-16T00:50:35.112Z,2.20
2018-12-16T00:53:04.188Z,2.40
2018-12-16T00:55:33.446Z,2.20
2018-12-16T00:58:02.594Z,2.30
2018-12-16T01:00:31.636Z,2.60
2018-12-16T01:03:00.670Z,2.50
2018-12-16T01:05:29.715Z,2.20
2018-12-16T01:07:58.994Z,1.90
2018-12-16T01:10:28.216Z,2.60
2018-12-16T01:12:57.448Z,3.10
2018-12-16T01:15:26.536Z,2.70
2018-12-16T01:17:55.864Z,2.10
2018-12-16T01:20:24.912Z,1.80
2018-12-16T01:22:54.056Z,2.50
2018-12-16T01:25:23.152Z,2.00
2018-12-16T01:27:52.228Z,2.60
2018-12-16T01:30:21.279Z,2.60
2018-12-16T01:32:50.318Z,2.30
2018-12-16T01:35:19.588Z,2.70
2018-12-16T01:37:48.695Z,2.50
2018-12-16T01:40:17.933Z,2.40
2018-12-16T01:42:47.116Z,2.00
2018-12-16T01:45:16.320Z,2.10
2018-12-16T01:47:45.506Z,2.00
2018-12-16T01:50:14.655Z,1.80
2018-12-16T01:52:49.966Z,1.90
2018-12-16T01:55:15.019Z,2.00
2018-12-16T01:57:44.354Z,2.40
2018-12-16T02:00:13.628Z,2.40
2018-12-16T02:02:42.836Z,2.20
2018-12-16T02:05:11.996Z,2.50
2018-12-16T02:07:41.046Z,2.40
2018-12-16T02:10:10.941Z,2.40
2018-12-16T02:12:40.013Z,2.90
2018-12-16T02:15:09.951Z,3.10
2018-12-16T02:17:39.448Z,2.60
2018-12-16T02:20:09.054Z,2.50
2018-12-16T02:22:38.532Z,1.70
2018-12-16T02:25:08.255Z,1.80
2018-12-16T02:27:37.331Z,1.80
2018-12-16T02:30:08.824Z,2.50
2018-12-16T02:32:37.973Z,2.10
2018-12-16T02:35:07.345Z,1.50
2018-12-16T02:37:36.467Z,1.40
2018-12-16T02:40:05.908Z,2.60
2018-12-16T02:42:34.971Z,3.10
2018-12-16T02:45:04.316Z,2.70
2018-12-16T02:47:34.073Z,3.40
2018-12-16T02:50:03.327Z,3.30
2018-12-16T02:52:32.467Z,2.20
2018-12-16T02:55:01.936Z,1.70
2018-12-16T02:57:32.916Z,1.90
2018-12-16T03:00:01.965Z,2.20
2018-12-16T03:02:32.124Z,2.20
2018-12-16T03:05:01.258Z,2.00
2018-12-16T03:07:30.328Z,2.40
2018-12-16T03:09:59.470Z,2.60
2018-12-16T03:12:28.605Z,2.90
2018-12-16T03:14:57.637Z,2.50
2018-12-16T03:17:26.692Z,2.90
2018-12-16T03:19:55.859Z,3.40
2018-12-16T03:22:24.891Z,2.10
2018-12-16T03:24:53.986Z,1.90
2018-12-16T03:27:23.116Z,3.10
2018-12-16T03:29:52.287Z,2.10
2018-12-16T03:32:21.531Z,2.20
2018-12-16T03:34:50.725Z,2.10
2018-12-16T03:37:19.799Z,2.60
2018-12-16T03:39:48.868Z,2.90
2018-12-16T03:42:18.000Z,2.10
2018-12-16T03:44:47.151Z,2.70
2018-12-16T03:47:16.288Z,2.90
2018-12-16T03:49:45.561Z,2.30
2018-12-16T03:52:15.295Z,1.80
2018-12-16T03:54:44.507Z,2.10
2018-12-16T03:57:13.580Z,1.90
2018-12-16T03:59:42.800Z,1.60
2018-12-16T04:02:12.188Z,2.20
2018-12-16T04:04:41.401Z,2.90
2018-12-16T04:07:10.600Z,2.50
2018-12-16T04:09:39.732Z,2.00
2018-12-16T04:12:08.969Z,1.80
2018-12-16T04:14:38.132Z,3.30
2018-12-16T04:17:07.376Z,3.80
2018-12-16T04:19:36.536Z,2.20
2018-12-16T04:22:05.655Z,2.80
2018-12-16T04:24:34.980Z,2.40
2018-12-16T04:27:04.279Z,2.10
2018-12-16T04:29:33.790Z,2.90
2018-12-16T04:32:03.169Z,3.00
2018-12-16T04:34:32.343Z,3.00
2018-12-16T04:37:01.765Z,2.20
2018-12-16T04:39:31.295Z,1.30
2018-12-16T04:42:00.780Z,2.50
2018-12-16T04:44:29.837Z,2.30
2018-12-16T04:46:58.969Z,2.20
2018-12-16T04:49:28.787Z,3.00
2018-12-16T04:51:57.975Z,2.90
2018-12-16T04:54:27.034Z,3.10
2018-12-16T04:56:56.173Z,2.10
2018-12-16T04:59:25.377Z,2.10
2018-12-16T05:01:54.580Z,2.70
2018-12-16T05:04:23.654Z,3.10
2018-12-16T05:06:52.912Z,2.30
2018-12-16T05:09:22.467Z,2.00
2018-12-16T05:11:51.631Z,1.60
2018-12-16T05:14:20.640Z,1.60
2018-12-16T05:16:49.817Z,1.60
2018-12-16T05:19:19.043Z,1.30
2018-12-16T05:21:48.255Z,2.10
2018-12-16T05:24:17.487Z,2.00
2018-12-16T05:26:46.607Z,3.00
2018-12-16T05:29:15.728Z,2.30
2018-12-16T05:31:44.883Z,2.40
2018-12-16T05:34:14.038Z,2.10
2018-12-16T05:36:43.168Z,1.60
2018-12-16T05:39:12.410Z,1.40
2018-12-16T05:41:41.577Z,1.40
2018-12-16T05:44:10.728Z,2.40
2018-12-16T05:46:39.874Z,1.90
2018-12-16T05:49:09.616Z,2.30
2018-12-16T05:51:38.660Z,1.60
2018-12-16T05:54:07.788Z,1.20
2018-12-16T05:56:37.020Z,1.50
2018-12-16T05:59:06.420Z,2.30
2018-12-16T06:01:35.669Z,2.00
2018-12-16T06:04:04.727Z,1.40
2018-12-16T06:06:33.906Z,2.30
2018-12-16T06:09:03.427Z,3.30
2018-12-16T06:11:32.451Z,1.90
2018-12-16T06:14:01.572Z,1.10
2018-12-16T06:16:30.632Z,1.40
2018-12-16T06:18:59.795Z,2.60
2018-12-16T06:21:28.863Z,2.50
2018-12-16T06:23:58.024Z,2.20
2018-12-16T06:26:27.160Z,2.70
2018-12-16T06:28:56.428Z,2.10
2018-12-16T06:31:25.555Z,1.80
2018-12-16T06:33:54.608Z,2.20
2018-12-16T06:36:23.748Z,2.40
2018-12-16T06:38:52.916Z,2.40
2018-12-16T06:41:22.031Z,2.50
2018-12-16T06:43:51.191Z,3.20
2018-12-16T06:46:20.228Z,3.00
2018-12-16T06:48:49.284Z,1.80
2018-12-16T06:51:18.513Z,1.80
2018-12-16T06:53:47.733Z,1.90
2018-12-16T06:56:17.020Z,2.20
2018-12-16T06:58:46.060Z,2.00
2018-12-16T07:01:16.280Z,2.40
2018-12-16T07:03:45.296Z,2.90
2018-12-16T07:06:14.303Z,2.30
2018-12-16T07:08:43.364Z,3.50
2018-12-16T07:11:13.051Z,3.20
2018-12-16T07:13:42.119Z,2.40
2018-12-16T07:16:11.432Z,2.90
2018-12-16T07:18:40.460Z,4.00
2018-12-16T07:21:09.597Z,3.50
2018-12-16T07:23:38.835Z,2.90
2018-12-16T07:26:08.026Z,2.80
2018-12-16T07:28:37.178Z,3.30
2018-12-16T07:31:06.388Z,3.30
2018-12-16T07:33:36.008Z,3.50
2018-12-16T07:36:05.277Z,3.30
2018-12-16T07:38:34.464Z,3.20
2018-12-16T07:41:03.552Z,3.60
2018-12-16T07:43:32.712Z,4.00
2018-12-16T07:46:01.895Z,2.50
2018-12-16T07:48:31.140Z,2.50
2018-12-16T07:51:00.568Z,2.40
2018-12-16T07:53:29.873Z,2.40
2018-12-16T07:55:59.143Z,2.80
2018-12-16T07:58:28.176Z,2.20
2018-12-16T08:00:57.490Z,3.10
2018-12-16T08:03:26.882Z,2.40
2018-12-16T08:05:55.936Z,3.30
2018-12-16T08:08:25.075Z,3.30
2018-12-16T08:10:54.688Z,3.70
2018-12-16T08:13:23.769Z,3.60
2018-12-16T08:15:53.579Z,3.30
2018-12-16T08:18:22.895Z,3.50
2018-12-16T08:20:52.052Z,3.10
2018-12-16T08:23:21.057Z,3.20
2018-12-16T08:25:50.922Z,4.20
2018-12-16T08:28:19.969Z,3.90
2018-12-16T08:30:49.072Z,3.50
2018-12-16T08:33:18.180Z,4.10
2018-12-16T08:35:47.483Z,4.50
2018-12-16T08:38:16.676Z,5.30
2018-12-16T08:40:45.815Z,4.20
2018-12-16T08:43:14.861Z,4.20
2018-12-16T08:45:43.954Z,2.60
2018-12-16T08:48:13.349Z,3.90
2018-12-16T08:50:42.607Z,2.50
2018-12-16T08:53:11.768Z,2.70
2018-12-16T08:55:40.916Z,2.40
2018-12-16T08:58:10.323Z,3.30
2018-12-16T09:00:39.573Z,2.60
2018-12-16T09:03:11.240Z,2.80
2018-12-16T09:05:40.743Z,2.90
2018-12-16T09:08:09.819Z,3.50
2018-12-16T09:10:39.065Z,4.80
2018-12-16T09:13:08.466Z,4.20
2018-12-16T09:15:38.127Z,3.90
2018-12-16T09:18:09.441Z,4.70
2018-12-16T09:20:38.689Z,5.50
2018-12-16T09:23:07.899Z,5.70
2018-12-16T09:25:37.770Z,6.40
2018-12-16T09:28:07.071Z,6.20
2018-12-16T09:30:36.115Z,5.70
2018-12-16T09:33:05.280Z,6.10
2018-12-16T09:35:34.617Z,5.10
2018-12-16T09:38:04.523Z,4.90
2018-12-16T09:40:33.614Z,5.10
2018-12-16T09:43:02.743Z,4.60
2018-12-16T09:45:31.912Z,4.20
2018-12-16T09:48:01.826Z,3.60
2018-12-16T09:50:31.129Z,4.30
2018-12-16T09:53:00.641Z,3.30
2018-12-16T09:55:29.935Z,4.50
2018-12-16T09:57:59.036Z,4.20
2018-12-16T10:00:28.318Z,3.10
2018-12-16T10:02:59.340Z,3.60
2018-12-16T10:05:28.456Z,4.50
2018-12-16T10:07:57.512Z,5.80
2018-12-16T10:10:26.956Z,5.70
2018-12-16T10:12:56.631Z,5.70
2018-12-16T10:15:25.967Z,4.40
2018-12-16T10:17:55.119Z,3.60
2018-12-16T10:20:24.751Z,2.60
2018-12-16T10:22:53.920Z,3.90
2018-12-16T10:25:23.204Z,3.80
2018-12-16T10:27:52.736Z,4.20
2018-12-16T10:30:22.575Z,3.80
2018-12-16T10:32:51.980Z,5.70
2018-12-16T10:35:21.288Z,5.50
2018-12-16T10:37:50.570Z,5.20
2018-12-16T10:40:20.787Z,4.20
2018-12-16T10:42:49.969Z,4.50
2018-12-16T10:45:19.214Z,5.80
2018-12-16T10:47:49.160Z,5.40
2018-12-16T10:50:18.287Z,4.60
2018-12-16T10:52:47.618Z,4.50
2018-12-16T10:55:16.872Z,4.40
2018-12-16T10:57:46.314Z,4.50
2018-12-16T11:00:21.120Z,3.50
2018-12-16T11:02:50.776Z,5.30
2018-12-16T11:05:20.952Z,4.60
2018-12-16T11:07:50.155Z,4.80
2018-12-16T11:10:19.459Z,4.30
2018-12-16T11:12:49.008Z,3.40
2018-12-16T11:15:18.349Z,5.10
2018-12-16T11:17:47.682Z,5.30
2018-12-16T11:20:16.759Z,4.80
2018-12-16T11:22:46.062Z,4.50
2018-12-16T11:25:17.061Z,4.20
2018-12-16T11:27:46.523Z,4.50
2018-12-16T11:30:15.973Z,5.30
2018-12-16T11:32:45.312Z,3.90
2018-12-16T11:35:14.621Z,3.80
2018-12-16T11:37:43.821Z,3.80
2018-12-16T11:40:12.973Z,3.60
2018-12-16T11:42:42.308Z,4.60
2018-12-16T11:45:11.343Z,5.00
2018-12-16T11:47:40.432Z,4.90
2018-12-16T11:50:10.214Z,4.90
2018-12-16T11:52:39.421Z,5.10
2018-12-16T11:55:12.800Z,5.40
2018-12-16T11:57:40.817Z,6.00
2018-12-16T12:00:10.584Z,5.80
2018-12-16T12:02:39.674Z,6.10
2018-12-16T12:05:08.942Z,5.40
2018-12-16T12:07:38.402Z,5.90
2018-12-16T12:10:08.552Z,5.90
2018-12-16T12:12:37.684Z,5.70
2018-12-16T12:15:07.280Z,4.40
2018-12-16T12:17:36.592Z,4.90
2018-12-16T12:20:06.596Z,5.10
2018-12-16T12:22:36.015Z,5.50
2018-12-16T12:25:06.338Z,6.40
2018-12-16T12:27:35.235Z,5.40
2018-12-16T12:30:05.339Z,5.70
2018-12-16T12:32:34.691Z,5.30
2018-12-16T12:35:04.244Z,6.30
2018-12-16T12:37:35.229Z,6.80
2018-12-16T12:40:05.511Z,6.60
2018-12-16T12:42:34.685Z,6.60
2018-12-16T12:45:04.117Z,7.30
2018-12-16T12:47:33.554Z,5.60
2018-12-16T12:50:02.812Z,4.60
2018-12-16T12:52:32.119Z,4.90
2018-12-16T12:55:01.429Z,4.50
2018-12-16T12:57:31.437Z,5.40
2018-12-16T13:00:01.525Z,5.10
2018-12-16T13:02:31.107Z,6.10
2018-12-16T13:05:00.352Z,5.10
2018-12-16T13:07:30.024Z,4.50
2018-12-16T13:09:59.363Z,4.20
2018-12-16T13:12:29.318Z,5.40
2018-12-16T13:14:58.458Z,4.30
2018-12-16T13:17:28.145Z,3.80
2018-12-16T13:19:57.255Z,5.40
2018-12-16T13:22:26.538Z,6.00
2018-12-16T13:26:08.868Z,6.30
2018-12-16T13:28:37.956Z,5.60
2018-12-16T13:31:07.283Z,4.90
2018-12-16T13:33:37.618Z,4.10
2018-12-16T13:36:09.973Z,4.10
2018-12-16T13:38:39.148Z,4.50
2018-12-16T13:41:08.562Z,3.60
2018-12-16T13:43:37.828Z,3.70
2018-12-16T13:46:06.952Z,3.60
2018-12-16T13:48:36.072Z,4.00
2018-12-16T13:51:05.278Z,3.80
2018-12-16T13:53:34.404Z,4.30
2018-12-16T13:56:03.574Z,4.90
2018-12-16T13:58:32.736Z,4.10
2018-12-16T14:01:01.840Z,3.40
2018-12-16T14:03:30.995Z,3.50
2018-12-16T14:06:00.200Z,4.10
2018-12-16T14:08:29.296Z,5.40
2018-12-16T14:10:58.424Z,5.50
2018-12-16T14:13:27.505Z,6.20
2018-12-16T14:15:56.936Z,6.10
2018-12-16T14:18:26.129Z,6.40
2018-12-16T14:20:55.288Z,5.70
2018-12-16T14:23:24.467Z,5.20
2018-12-16T14:25:53.703Z,5.20
2018-12-16T14:28:23.132Z,5.00
2018-12-16T14:30:52.311Z,4.50
2018-12-16T14:33:21.517Z,4.40
2018-12-16T14:35:50.686Z,5.90
2018-12-16T14:38:20.344Z,5.30
2018-12-16T14:40:49.407Z,5.60
2018-12-16T14:43:18.715Z,5.40
2018-12-16T14:45:47.750Z,5.50
2018-12-16T14:48:17.081Z,5.70
2018-12-16T14:50:46.479Z,6.50
2018-12-16T14:53:16.539Z,6.90
2018-12-16T14:55:45.675Z,6.00
2018-12-16T14:58:14.555Z,6.80
2018-12-16T15:00:43.464Z,7.00
2018-12-16T15:03:13.148Z,6.90
2018-12-16T15:05:42.652Z,7.50
2018-12-16T15:08:12.432Z,7.20
2018-12-16T15:10:41.532Z,6.80
2018-12-16T15:13:10.756Z,6.90
2018-12-16T15:15:39.816Z,6.10
2018-12-16T15:18:08.869Z,5.70
2018-12-16T15:20:37.901Z,5.40
2018-12-16T15:23:07.660Z,5.50
2018-12-16T15:25:37.044Z,6.70
2018-12-16T15:28:06.473Z,5.60
2018-12-16T15:30:35.773Z,6.10
2018-12-16T15:33:05.059Z,6.30
2018-12-16T15:35:34.561Z,5.00
2018-12-16T15:38:03.875Z,6.40
2018-12-16T15:40:33.197Z,6.70
2018-12-16T15:43:02.255Z,6.50
2018-12-16T15:45:31.310Z,6.90
2018-12-16T15:48:00.436Z,6.50
2018-12-16T15:50:29.842Z,6.70
2018-12-16T15:52:59.331Z,7.30
2018-12-16T15:55:28.768Z,7.60
2018-12-16T15:57:58.256Z,7.60
2018-12-16T16:00:27.631Z,7.20
2018-12-16T16:02:56.668Z,6.60
2018-12-16T16:05:25.750Z,6.70
2018-12-16T16:07:54.962Z,7.30
2018-12-16T16:10:24.115Z,7.30
2018-12-16T16:12:53.416Z,7.50
2018-12-16T16:15:22.542Z,7.70
2018-12-16T16:17:53.306Z,7.60
2018-12-16T16:20:22.792Z,7.50
2018-12-16T16:22:52.004Z,6.50
2018-12-16T16:25:21.173Z,6.20
2018-12-16T16:27:50.199Z,7.10
2018-12-16T16:30:19.471Z,6.90
2018-12-16T16:32:48.612Z,7.70
2018-12-16T16:35:17.763Z,7.60
2018-12-16T16:37:47.029Z,6.10
2018-12-16T16:40:16.311Z,5.30
2018-12-16T16:42:45.572Z,6.10
2018-12-16T16:45:14.868Z,5.70
2018-12-16T16:47:43.911Z,5.30
2018-12-16T16:50:13.343Z,5.10
2018-12-16T16:52:42.506Z,5.60
2018-12-16T16:55:11.744Z,4.90
2018-12-16T16:57:40.793Z,6.20
2018-12-16T17:00:10.539Z,6.00
2018-12-16T17:02:39.703Z,5.80
2018-12-16T17:05:09.259Z,6.10
2018-12-16T17:07:38.512Z,6.50
2018-12-16T17:10:09.093Z,5.80
2018-12-16T17:12:39.389Z,5.90
2018-12-16T17:15:09.133Z,6.80
2018-12-16T17:17:38.828Z,6.20
2018-12-16T17:20:08.953Z,6.00
2018-12-16T17:22:38.665Z,6.80
2018-12-16T17:25:07.966Z,7.70
2018-12-16T17:27:37.170Z,7.40
2018-12-16T17:30:08.500Z,7.70
2018-12-16T17:32:37.556Z,7.90
2018-12-16T17:35:07.008Z,8.20
2018-12-16T17:37:36.051Z,7.50
2018-12-16T17:40:06.000Z,7.00
2018-12-16T17:42:36.925Z,7.10
2018-12-16T17:45:07.042Z,6.00
2018-12-16T17:47:36.231Z,6.60
2018-12-16T17:50:05.964Z,6.30
2018-12-16T17:52:35.168Z,6.00
2018-12-16T17:55:05.101Z,7.00
2018-12-16T17:57:34.253Z,6.50
2018-12-16T18:00:03.804Z,6.80
2018-12-16T18:02:32.980Z,7.20
2018-12-16T18:05:02.129Z,7.20
2018-12-16T18:07:31.124Z,7.20
2018-12-16T18:10:00.128Z,7.70
2018-12-16T18:12:29.566Z,6.90
2018-12-16T18:14:58.611Z,7.00
2018-12-16T18:17:27.753Z,5.90
2018-12-16T18:19:56.849Z,5.70
2018-12-16T18:22:26.032Z,5.50
2018-12-16T18:24:55.245Z,5.90
2018-12-16T18:27:24.434Z,6.30
2018-12-16T18:29:53.650Z,6.30
2018-12-16T18:32:22.836Z,6.90
2018-12-16T18:34:52.042Z,7.30
2018-12-16T18:37:21.241Z,7.40
2018-12-16T18:39:50.381Z,7.80
2018-12-16T18:42:19.872Z,8.40
2018-12-16T18:44:48.968Z,8.50
2018-12-16T18:47:17.993Z,8.60
2018-12-16T18:49:47.156Z,8.30
2018-12-16T18:52:16.293Z,8.40
2018-12-16T18:54:45.444Z,8.80
2018-12-16T18:57:14.725Z,7.20
2018-12-16T18:59:43.959Z,7.90
2018-12-16T19:02:13.193Z,7.50
2018-12-16T19:04:42.399Z,7.60
2018-12-16T19:07:12.412Z,7.90
2018-12-16T19:09:41.703Z,6.90
2018-12-16T19:12:10.916Z,6.90
2018-12-16T19:14:40.568Z,7.30
2018-12-16T19:17:09.992Z,7.10
2018-12-16T19:19:39.415Z,6.90
2018-12-16T19:22:08.567Z,7.60
2018-12-16T19:24:37.819Z,8.40
2018-12-16T19:27:07.666Z,7.20
2018-12-16T19:29:37.630Z,7.30
2018-12-16T19:32:06.644Z,6.70
2018-12-16T19:34:36.540Z,6.40
2018-12-16T19:37:05.812Z,6.20
2018-12-16T19:39:35.035Z,6.10
2018-12-16T19:42:04.204Z,6.60
2018-12-16T19:44:33.260Z,6.90
2018-12-16T19:47:02.291Z,7.10
2018-12-16T19:49:31.276Z,7.30
2018-12-16T19:52:01.072Z,7.30
2018-12-16T19:54:30.135Z,7.20
2018-12-16T19:57:04.933Z,7.40
2018-12-16T19:59:30.482Z,7.20
2018-12-16T20:01:59.529Z,6.90
2018-12-16T20:04:33.862Z,7.10
2018-12-16T20:07:02.951Z,7.80
2018-12-16T20:09:32.274Z,8.60
2018-12-16T20:12:01.581Z,8.30
2018-12-16T20:14:31.012Z,7.40
2018-12-16T20:17:00.139Z,7.00
2018-12-16T20:19:32.095Z,7.00
2018-12-16T20:22:01.400Z,7.30
2018-12-16T20:24:30.643Z,6.80
2018-12-16T20:26:59.696Z,7.30
2018-12-16T20:29:28.811Z,7.50
2018-12-16T20:31:57.869Z,7.40
2018-12-16T20:34:30.055Z,7.00
2018-12-16T20:36:59.342Z,6.90
2018-12-16T20:39:35.842Z,6.80
2018-12-16T20:42:05.111Z,7.40
2018-12-16T20:44:42.643Z,7.40
2018-12-16T20:47:11.846Z,7.40
2018-12-16T20:49:41.331Z,7.10
2018-12-16T20:52:13.201Z,6.80
2018-12-16T20:54:48.521Z,7.00
2018-12-16T20:57:19.046Z,6.30
2018-12-16T20:59:48.528Z,6.20
2018-12-16T21:02:17.672Z,7.50
2018-12-16T21:04:46.792Z,6.90
2018-12-16T21:07:15.920Z,7.80
2018-12-16T21:09:45.063Z,7.40
2018-12-16T21:12:19.254Z,7.50
2018-12-16T21:14:53.497Z,7.50
2018-12-16T21:17:27.544Z,7.80
2018-12-16T21:19:56.840Z,8.20
2018-12-16T21:22:25.919Z,7.90
2018-12-16T21:24:55.107Z,6.70
2018-12-16T21:27:26.043Z,5.80
2018-12-16T21:29:55.690Z,6.50
2018-12-16T21:32:24.877Z,6.40
2018-12-16T21:34:54.089Z,6.50
2018-12-16T21:37:23.149Z,6.30
2018-12-16T21:39:52.388Z,6.10
2018-12-16T21:42:21.558Z,6.50
2018-12-16T21:44:50.720Z,7.10
2018-12-16T21:47:19.840Z,6.80
2018-12-16T21:49:49.434Z,6.60
2018-12-16T21:52:18.882Z,7.40
2018-12-16T21:54:48.071Z,7.60
2018-12-16T21:57:17.347Z,8.10
2018-12-16T21:59:46.679Z,8.00
2018-12-16T22:02:15.755Z,7.30
2018-12-16T22:04:45.068Z,7.60
2018-12-16T22:07:15.138Z,6.20
2018-12-16T22:09:44.124Z,6.60
2018-12-16T22:12:13.281Z,6.20
2018-12-16T22:14:42.310Z,6.20
2018-12-16T22:17:11.437Z,7.10
2018-12-16T22:19:40.545Z,7.50
2018-12-16T22:22:09.702Z,7.50
2018-12-16T22:24:39.134Z,7.40
2018-12-16T22:27:08.513Z,7.60
2018-12-16T22:29:37.738Z,7.30
2018-12-16T22:32:06.785Z,7.10
2018-12-16T22:34:36.045Z,7.40
2018-12-16T22:37:05.600Z,6.70
2018-12-16T22:39:34.731Z,6.00
2018-12-16T22:42:04.100Z,6.50
2018-12-16T22:44:33.124Z,7.50
2018-12-16T22:47:02.440Z,6.80
2018-12-16T22:49:31.567Z,7.20
2018-12-16T22:52:00.835Z,7.20
2018-12-16T22:54:30.236Z,7.10
2018-12-16T22:56:59.372Z,6.40
2018-12-16T22:59:28.396Z,6.10
2018-12-16T23:01:57.583Z,6.30
2018-12-16T23:04:26.584Z,6.40
2018-12-16T23:06:55.816Z,6.80
2018-12-16T23:09:31.440Z,6.80
2018-12-16T23:12:00.558Z,6.80
2018-12-16T23:14:29.729Z,6.80
2018-12-16T23:16:58.887Z,7.00
2018-12-16T23:19:27.941Z,6.70
2018-12-16T23:21:57.092Z,7.30
2018-12-16T23:24:26.955Z,7.00
2018-12-16T23:26:56.005Z,6.10
2018-12-16T23:29:25.231Z,6.70
2018-12-16T23:31:54.397Z,7.00
2018-12-16T23:34:23.718Z,6.50
2018-12-16T23:36:52.896Z,7.70
2018-12-16T23:39:22.015Z,7.60
2018-12-16T23:41:51.431Z,8.00
2018-12-16T23:44:20.521Z,7.50
2018-12-16T23:46:49.572Z,7.30
2018-12-16T23:49:18.596Z,7.20
2018-12-16T23:51:47.888Z,7.50
2018-12-16T23:54:16.955Z,7.40
2018-12-16T23:56:45.994Z,7.00
2018-12-16T23:59:15.306Z,6.90
